Time;durP1;ratioP1;P1;durP2;ratioP2;P2;SDS_P1;SDS_P2;PMS_P1;PMS_P2;Temp;Humidity;BMP_temperature;BMP_pressure;BME280_temperature;BME280_humidity;BME280_pressure;Samples;Min_cycle;Max_cycle;Signal;HPM_P1;HPM_P2
2022/10/17 00:00:14;;;;;;;1.30;1.30;;;18.50;48.70;;;;;;4972654;28;20191;-75
2022/10/17 00:02:40;;;;;;;1.70;1.60;;;18.50;48.80;;;;;;4970877;28;20218;-75
2022/10/17 00:05:05;;;;;;;1.40;1.37;;;18.60;48.90;;;;;;4971683;28;20185;-76
2022/10/17 00:07:31;;;;;;;1.30;1.20;;;18.60;48.50;;;;;;4972493;28;20182;-75
2022/10/17 00:09:56;;;;;;;1.30;1.20;;;18.50;49.10;;;;;;4972369;28;20182;-75
2022/10/17 00:12:22;;;;;;;1.50;1.47;;;18.60;48.50;;;;;;4971710;28;20202;-75
2022/10/17 00:14:48;;;;;;;1.53;1.30;;;18.50;49.50;;;;;;4971945;28;20218;-78
2022/10/17 00:17:14;;;;;;;1.40;1.30;;;18.20;50.10;;;;;;4969483;28;20179;-75
2022/10/17 00:19:40;;;;;;;3.20;1.60;;;18.20;49.70;;;;;;4972572;28;20176;-78
2022/10/17 00:22:05;;;;;;;1.30;1.27;;;18.30;49.80;;;;;;4971048;28;20838;-76
2022/10/17 00:24:31;;;;;;;1.40;1.37;;;18.40;49.00;;;;;;4970958;28;20185;-76
2022/10/17 00:26:56;;;;;;;2.67;1.80;;;18.10;50.00;;;;;;4971091;28;20274;-75
2022/10/17 00:29:22;;;;;;;1.53;1.40;;;18.10;50.40;;;;;;4972211;28;20318;-78
2022/10/17 00:31:47;;;;;;;1.60;1.23;;;18.20;49.20;;;;;;4971146;28;20582;-76
2022/10/17 00:34:13;;;;;;;1.43;1.37;;;18.20;49.60;;;;;;4971892;28;20210;-75
2022/10/17 00:36:39;;;;;;;2.50;1.40;;;18.10;49.30;;;;;;4972364;28;20650;-75
2022/10/17 00:39:04;;;;;;;1.80;1.40;;;18.00;49.50;;;;;;4971682;28;20183;-77
2022/10/17 00:41:32;;;;;;;1.60;1.47;;;18.10;49.20;;;;;;4971997;28;20293;-75
2022/10/17 00:44:04;;;;;;;1.30;1.20;;;18.00;49.70;;;;;;4970440;28;20253;-77
2022/10/17 00:46:36;;;;;;;1.30;1.10;;;18.00;49.10;;;;;;4971799;28;20422;-75
2022/10/17 00:49:09;;;;;;;1.43;1.37;;;18.00;49.30;;;;;;4968540;28;20933;-75
2022/10/17 00:51:45;;;;;;;1.60;1.30;;;18.00;49.20;;;;;;4970805;28;20441;-76
2022/10/17 00:54:13;;;;;;;1.30;1.30;;;17.90;49.00;;;;;;4971296;28;20465;-75
2022/10/17 00:56:39;;;;;;;1.30;1.17;;;17.90;48.70;;;;;;4971730;28;21008;-78
2022/10/17 00:59:07;;;;;;;1.37;1.37;;;17.90;49.50;;;;;;4972954;28;20454;-78
2022/10/17 01:01:33;;;;;;;1.60;1.60;;;17.90;48.20;;;;;;4973624;28;20445;-75
2022/10/17 01:03:59;;;;;;;1.60;1.50;;;17.70;49.10;;;;;;4975305;28;20434;-78
2022/10/17 01:06:24;;;;;;;1.30;1.30;;;17.70;49.10;;;;;;4975823;28;20480;-75
2022/10/17 01:08:50;;;;;;;1.40;1.40;;;17.70;49.60;;;;;;4975796;28;20214;-75
2022/10/17 01:11:35;;;;;;;1.30;1.20;;;17.90;48.90;;;;;;4973440;28;20289;-75
2022/10/17 01:14:15;;;;;;;1.30;1.13;;;17.90;49.80;;;;;;4974171;28;20277;-78
2022/10/17 01:16:57;;;;;;;1.40;1.30;;;18.10;49.00;;;;;;4975816;28;20416;-75
2022/10/17 01:19:40;;;;;;;1.30;1.23;;;17.90;48.40;;;;;;4968961;28;20428;-76
2022/10/17 01:22:18;;;;;;;1.30;1.20;;;17.90;48.90;;;;;;4973023;28;20512;-76
2022/10/17 01:25:00;;;;;;;1.40;1.30;;;18.00;48.20;;;;;;4972496;28;20568;-76
2022/10/17 01:27:49;;;;;;;1.40;1.40;;;17.70;49.10;;;;;;4990252;28;20421;-76
2022/10/17 01:30:45;;;;;;;1.40;1.40;;;17.50;49.20;;;;;;4974394;28;20496;-75
2022/10/17 01:33:34;;;;;;;1.47;1.40;;;16.70;49.10;;;;;;4975393;28;20956;-75
2022/10/17 01:36:22;;;;;;;2.03;1.60;;;17.40;50.20;;;;;;4974493;28;20438;-76
2022/10/17 01:38:52;;;;;;;1.70;1.53;;;17.50;49.40;;;;;;4975211;28;20457;-75
2022/10/17 01:41:34;;;;;;;1.30;1.20;;;17.40;49.40;;;;;;4974542;28;20828;-76
2022/10/17 01:44:04;;;;;;;1.33;1.33;;;17.50;48.80;;;;;;4971476;28;20472;-75
2022/10/17 01:46:36;;;;;;;1.30;1.30;;;17.50;48.80;;;;;;4973195;28;20462;-81
2022/10/17 01:49:05;;;;;;;1.30;1.20;;;17.50;49.30;;;;;;4972178;28;20476;-78
2022/10/17 01:51:46;;;;;;;1.40;1.40;;;17.60;48.90;;;;;;4974659;28;20441;-75
2022/10/17 01:54:29;;;;;;;1.70;1.23;;;17.50;48.90;;;;;;4973901;28;20433;-80
2022/10/17 01:56:59;;;;;;;1.70;1.60;;;17.40;49.70;;;;;;4973419;28;20438;-77
2022/10/17 01:59:30;;;;;;;1.50;1.40;;;17.40;49.80;;;;;;4969148;28;20449;-77
2022/10/17 02:01:58;;;;;;;1.30;1.20;;;17.60;48.70;;;;;;4969363;28;20453;-75
2022/10/17 02:04:25;;;;;;;1.70;1.40;;;17.70;48.60;;;;;;4974019;28;20427;-75
2022/10/17 02:06:50;;;;;;;1.30;1.20;;;17.60;49.10;;;;;;4974950;28;20429;-75
2022/10/17 02:09:23;;;;;;;1.30;1.27;;;17.60;49.00;;;;;;4974479;28;20475;-75
2022/10/17 02:12:26;;;;;;;1.30;1.20;;;17.40;49.20;;;;;;4974791;28;20205;-78
2022/10/17 02:15:00;;;;;;;1.27;1.20;;;17.40;50.20;;;;;;4972721;28;20423;-75
2022/10/17 02:17:29;;;;;;;1.50;1.27;;;17.30;49.80;;;;;;4972214;28;20432;-77
2022/10/17 02:20:14;;;;;;;1.30;1.20;;;17.20;50.20;;;;;;4974235;28;20990;-75
2022/10/17 02:23:11;;;;;;;1.80;1.50;;;17.30;49.60;;;;;;4973713;28;20531;-75
2022/10/17 02:26:01;;;;;;;1.30;1.20;;;17.40;49.80;;;;;;4966520;28;21015;-75
2022/10/17 02:28:42;;;;;;;1.30;1.20;;;17.40;49.50;;;;;;4972471;28;20452;-78
2022/10/17 02:31:21;;;;;;;2.17;1.50;;;17.30;49.50;;;;;;4973750;28;20473;-75
2022/10/17 02:33:54;;;;;;;1.50;1.30;;;17.30;49.70;;;;;;4973376;28;20468;-75
2022/10/17 02:36:29;;;;;;;1.50;1.40;;;17.20;50.40;;;;;;4974124;28;21037;-75
2022/10/17 02:38:57;;;;;;;1.30;1.13;;;17.20;49.70;;;;;;4973597;28;20940;-77
2022/10/17 02:41:24;;;;;;;1.50;1.30;;;17.10;50.70;;;;;;4973508;28;20449;-75
2022/10/17 02:43:51;;;;;;;1.30;1.23;;;16.90;52.50;;;;;;4973098;28;20444;-78
2022/10/17 02:46:20;;;;;;;1.30;1.10;;;17.00;51.30;;;;;;4973167;28;20966;-75
2022/10/17 02:49:00;;;;;;;1.30;1.10;;;16.90;51.40;;;;;;4971777;28;20468;-78
2022/10/17 02:51:45;;;;;;;1.90;1.53;;;16.80;51.90;;;;;;4973428;28;20481;-76
2022/10/17 02:54:20;;;;;;;1.30;1.20;;;16.90;51.00;;;;;;4972196;28;20453;-75
2022/10/17 02:57:11;;;;;;;1.87;1.50;;;17.00;51.40;;;;;;4968430;28;20416;-78
2022/10/17 02:59:40;;;;;;;1.30;1.30;;;17.00;50.10;;;;;;4973593;28;20467;-75
2022/10/17 03:02:06;;;;;;;1.30;1.30;;;16.90;49.10;;;;;;4972807;28;20447;-75
2022/10/17 03:04:33;;;;;;;1.30;1.10;;;16.90;49.40;;;;;;4970461;28;20922;-75
2022/10/17 03:06:58;;;;;;;1.30;1.20;;;16.80;49.90;;;;;;4973115;28;20523;-76
2022/10/17 03:09:24;;;;;;;1.30;1.10;;;16.60;50.00;;;;;;4973789;28;20507;-77
2022/10/17 03:11:50;;;;;;;1.47;1.30;;;16.60;49.90;;;;;;4972776;28;20284;-79
2022/10/17 03:14:15;;;;;;;1.40;1.23;;;16.70;50.50;;;;;;4972654;28;20272;-76
2022/10/17 03:16:41;;;;;;;1.30;1.20;;;16.60;49.10;;;;;;4987474;28;20234;-77
2022/10/17 03:19:06;;;;;;;1.33;1.30;;;16.70;48.90;;;;;;4973364;28;20188;-77
2022/10/17 03:21:32;;;;;;;1.30;1.10;;;16.70;48.50;;;;;;4972716;28;20273;-75
2022/10/17 03:23:58;;;;;;;1.30;1.13;;;16.60;49.80;;;;;;4972738;28;20239;-75
2022/10/17 03:26:24;;;;;;;1.97;1.23;;;16.50;49.30;;;;;;4975361;28;20211;-75
2022/10/17 03:28:49;;;;;;;1.63;1.60;;;16.60;49.50;;;;;;4976848;28;20531;-75
2022/10/17 03:31:16;;;;;;;1.50;1.37;;;16.50;49.20;;;;;;4972734;28;20217;-76
2022/10/17 03:33:42;;;;;;;1.30;1.20;;;16.50;49.90;;;;;;4972785;28;20200;-75
2022/10/17 03:36:13;;;;;;;1.30;1.20;;;16.50;49.80;;;;;;4970757;28;20431;-75
2022/10/17 03:38:39;;;;;;;1.30;1.23;;;16.60;49.50;;;;;;4973347;28;20424;-75
2022/10/17 03:41:06;;;;;;;1.47;1.47;;;16.80;49.60;;;;;;4972560;28;21019;-78
2022/10/17 03:43:32;;;;;;;1.30;1.10;;;16.70;49.60;;;;;;4972480;28;20340;-75
2022/10/17 03:45:59;;;;;;;1.40;1.27;;;16.60;49.40;;;;;;4972836;28;20424;-75
2022/10/17 03:48:25;;;;;;;1.60;1.40;;;16.60;49.90;;;;;;4972000;28;20428;-75
2022/10/17 03:50:51;;;;;;;1.80;1.40;;;16.50;49.70;;;;;;4972754;28;20428;-75
2022/10/17 03:53:17;;;;;;;1.60;1.50;;;16.50;49.40;;;;;;4971040;28;20472;-76
2022/10/17 03:55:43;;;;;;;1.50;1.30;;;16.60;49.40;;;;;;4971323;28;20459;-75
2022/10/17 03:58:08;;;;;;;1.30;1.30;;;16.40;49.80;;;;;;4973716;28;20453;-75
2022/10/17 04:00:40;;;;;;;1.30;1.27;;;16.40;49.80;;;;;;4972785;28;20653;-75
2022/10/17 04:03:05;;;;;;;1.40;1.30;;;16.60;50.00;;;;;;4972354;28;20587;-78
2022/10/17 04:05:31;;;;;;;1.80;1.30;;;16.40;50.10;;;;;;4972342;28;20434;-75
2022/10/17 04:07:56;;;;;;;1.50;1.50;;;16.30;49.80;;;;;;4970134;28;20193;-77
2022/10/17 04:10:22;;;;;;;1.40;1.30;;;14.80;48.50;;;;;;4972517;28;20659;-75
2022/10/17 04:12:48;;;;;;;1.40;1.30;;;16.30;49.90;;;;;;4971547;28;20344;-77
2022/10/17 04:15:13;;;;;;;1.97;1.40;;;16.30;49.20;;;;;;4972404;28;20552;-75
2022/10/17 04:17:39;;;;;;;1.50;1.43;;;16.30;50.10;;;;;;4970644;28;20198;-75
2022/10/17 04:20:05;;;;;;;1.73;1.53;;;16.50;49.60;;;;;;4971061;28;20185;-78
2022/10/17 04:22:31;;;;;;;1.30;1.30;;;16.50;49.10;;;;;;4971829;28;20243;-78
2022/10/17 04:24:56;;;;;;;1.40;1.40;;;16.50;49.30;;;;;;4972261;28;20433;-76
2022/10/17 04:27:22;;;;;;;1.50;1.33;;;16.40;49.40;;;;;;4971633;28;20736;-75
2022/10/17 04:29:47;;;;;;;1.70;1.23;;;16.50;49.40;;;;;;4971492;28;20185;-75
2022/10/17 04:32:13;;;;;;;1.30;1.20;;;16.60;48.70;;;;;;4971717;28;20297;-75
2022/10/17 04:34:39;;;;;;;1.30;1.10;;;16.50;49.60;;;;;;4970499;28;20292;-75
2022/10/17 04:37:05;;;;;;;1.40;1.40;;;16.50;49.70;;;;;;4969964;28;21030;-78
2022/10/17 04:39:30;;;;;;;1.40;1.23;;;16.30;51.10;;;;;;4972003;28;20181;-77
2022/10/17 04:41:56;;;;;;;2.17;1.43;;;16.00;51.60;;;;;;4971661;28;20220;-75
2022/10/17 04:44:22;;;;;;;1.50;1.50;;;15.90;50.90;;;;;;4970523;28;21517;-75
2022/10/17 04:46:47;;;;;;;2.33;1.50;;;15.90;51.70;;;;;;4972173;28;20176;-74
2022/10/17 04:49:13;;;;;;;1.30;1.10;;;16.00;50.80;;;;;;4971898;28;20914;-76
2022/10/17 04:51:39;;;;;;;1.30;1.20;;;16.40;50.80;;;;;;4971345;28;20204;-75
2022/10/17 04:54:05;;;;;;;1.60;1.30;;;16.10;49.90;;;;;;4971925;28;20457;-75
2022/10/17 04:56:30;;;;;;;1.87;1.40;;;16.20;50.30;;;;;;4972051;28;20250;-75
2022/10/17 04:58:58;;;;;;;1.40;1.40;;;16.20;49.80;;;;;;4971511;28;20673;-75
2022/10/17 05:01:24;;;;;;;1.30;1.20;;;16.20;49.70;;;;;;4970001;28;20687;-75
2022/10/17 05:03:50;;;;;;;1.30;1.30;;;16.10;49.70;;;;;;4971882;28;20428;-77
2022/10/17 05:06:22;;;;;;;1.30;1.23;;;16.00;50.30;;;;;;4971827;28;20436;-76
2022/10/17 05:08:48;;;;;;;1.30;1.20;;;16.00;50.50;;;;;;4963727;28;20420;-75
2022/10/17 05:11:23;;;;;;;1.30;1.23;;;16.10;49.90;;;;;;4971699;28;20559;-75
2022/10/17 05:13:52;;;;;;;1.50;1.40;;;16.10;49.50;;;;;;4970622;28;20470;-75
2022/10/17 05:16:18;;;;;;;1.50;1.33;;;16.10;49.70;;;;;;4969695;28;20431;-75
2022/10/17 05:18:47;;;;;;;1.30;1.20;;;16.10;49.60;;;;;;4972102;28;20423;-75
2022/10/17 05:21:13;;;;;;;1.83;1.40;;;16.00;51.00;;;;;;4971164;28;20473;-74
2022/10/17 05:23:38;;;;;;;1.30;1.20;;;16.10;50.40;;;;;;4970511;28;20438;-75
2022/10/17 05:26:04;;;;;;;1.93;1.30;;;16.20;50.10;;;;;;4971413;28;20662;-75
2022/10/17 05:28:30;;;;;;;1.77;1.60;;;16.10;49.70;;;;;;4971915;28;20210;-77
2022/10/17 05:30:55;;;;;;;1.40;1.40;;;16.10;49.80;;;;;;4971186;28;20216;-75
2022/10/17 05:33:22;;;;;;;1.30;1.10;;;16.10;50.00;;;;;;4970406;28;20295;-76
2022/10/17 05:35:47;;;;;;;1.30;1.23;;;16.00;50.40;;;;;;4966986;28;20254;-75
2022/10/17 05:38:13;;;;;;;1.30;1.20;;;16.00;51.10;;;;;;4971338;28;20549;-75
2022/10/17 05:40:39;;;;;;;1.30;1.20;;;15.90;51.40;;;;;;4966860;28;20231;-85
2022/10/17 05:43:04;;;;;;;1.50;1.30;;;16.00;50.60;;;;;;4952470;28;20216;-85
2022/10/17 05:45:30;;;;;;;1.40;1.20;;;16.20;49.90;;;;;;4966840;28;20683;-85
2022/10/17 05:47:56;;;;;;;1.33;1.30;;;16.30;49.60;;;;;;4973886;28;20181;-85
2022/10/17 05:50:23;;;;;;;1.30;1.20;;;16.40;49.90;;;;;;4974773;28;20593;-85
2022/10/17 05:52:52;;;;;;;1.50;1.40;;;16.30;49.70;;;;;;4975072;28;20986;-85
2022/10/17 05:55:18;;;;;;;1.87;1.40;;;16.20;50.00;;;;;;4973911;28;20430;-85
2022/10/17 05:57:44;;;;;;;1.30;1.10;;;16.30;50.30;;;;;;4974910;28;21152;-87
2022/10/17 06:00:10;;;;;;;1.30;1.27;;;16.30;50.00;;;;;;4975810;28;20216;-81
2022/10/17 06:02:35;;;;;;;1.60;1.60;;;16.40;49.60;;;;;;4976170;28;20200;-77
2022/10/17 06:05:01;;;;;;;1.30;1.17;;;16.60;49.10;;;;;;4973426;28;20440;-77
2022/10/17 06:07:26;;;;;;;1.30;1.20;;;16.30;49.50;;;;;;4974198;28;20259;-78
2022/10/17 06:09:52;;;;;;;1.87;1.50;;;16.30;49.70;;;;;;4974636;28;20241;-77
2022/10/17 06:12:17;;;;;;;1.40;1.40;;;16.30;49.30;;;;;;4972942;28;20565;-78
2022/10/17 06:14:43;;;;;;;1.40;1.40;;;16.40;49.00;;;;;;4972226;28;20183;-78
2022/10/17 06:17:09;;;;;;;1.40;1.37;;;16.40;49.60;;;;;;4975551;28;20188;-78
2022/10/17 06:19:34;;;;;;;1.30;1.10;;;16.30;50.90;;;;;;4979969;28;20195;-80
2022/10/17 06:22:00;;;;;;;1.30;1.30;;;16.20;51.70;;;;;;4974200;28;20212;-78
2022/10/17 06:24:25;;;;;;;1.30;1.10;;;16.30;51.00;;;;;;4974804;28;20185;-78
2022/10/17 06:26:51;;;;;;;1.30;1.10;;;16.30;50.70;;;;;;4974004;28;20212;-78
2022/10/17 06:29:17;;;;;;;1.40;1.37;;;16.20;50.70;;;;;;4971797;28;20190;-77
2022/10/17 06:31:42;;;;;;;1.40;1.33;;;16.30;50.30;;;;;;4973574;28;20210;-77
2022/10/17 06:34:08;;;;;;;3.07;2.07;;;16.30;50.40;;;;;;4971952;28;20269;-80
2022/10/17 06:36:34;;;;;;;1.90;1.37;;;16.10;51.90;;;;;;4974064;28;20180;-77
2022/10/17 06:38:59;;;;;;;2.60;1.40;;;16.00;52.80;;;;;;4974348;28;20258;-80
2022/10/17 06:41:25;;;;;;;1.30;1.20;;;15.30;56.90;;;;;;4970578;28;20204;-77
2022/10/17 06:43:50;;;;;;;1.47;1.47;;;15.20;58.10;;;;;;4974095;28;20184;-77
2022/10/17 06:46:18;;;;;;;1.73;1.30;;;15.80;55.20;;;;;;4974441;28;20194;-77
2022/10/17 06:48:44;;;;;;;1.30;1.30;;;16.10;53.80;;;;;;4972736;28;20192;-77
2022/10/17 06:51:11;;;;;;;1.30;1.10;;;16.20;52.10;;;;;;4972188;28;20462;-77
2022/10/17 06:53:39;;;;;;;1.73;1.63;;;16.80;52.10;;;;;;4969306;28;20468;-77
2022/10/17 06:56:06;;;;;;;1.30;1.20;;;16.50;51.30;;;;;;4974697;28;20464;-79
2022/10/17 06:58:34;;;;;;;1.30;1.17;;;16.60;51.20;;;;;;4970838;28;20440;-77
2022/10/17 07:01:09;;;;;;;1.40;1.30;;;16.40;51.10;;;;;;4972144;28;20576;-77
2022/10/17 07:03:35;;;;;;;1.30;1.20;;;16.10;53.80;;;;;;4967640;28;20955;-76
2022/10/17 07:06:01;;;;;;;1.30;1.30;;;15.60;56.20;;;;;;4986472;28;20529;-78
2022/10/17 07:08:26;;;;;;;1.40;1.30;;;15.80;54.80;;;;;;4971084;28;21094;-77
2022/10/17 07:10:53;;;;;;;1.60;1.50;;;16.20;52.80;;;;;;4971298;28;20212;-78
2022/10/17 07:13:19;;;;;;;1.30;1.20;;;16.50;52.40;;;;;;4974295;28;20477;-77
2022/10/17 07:15:45;;;;;;;1.30;1.20;;;16.70;51.80;;;;;;4973471;28;20452;-77
2022/10/17 07:18:11;;;;;;;1.30;1.30;;;16.70;50.80;;;;;;4973367;28;20466;-77
2022/10/17 07:20:37;;;;;;;1.30;1.20;;;16.70;51.20;;;;;;4972912;28;20186;-77
2022/10/17 07:23:03;;;;;;;1.50;1.40;;;16.50;51.40;;;;;;4972167;28;20957;-77
2022/10/17 07:25:28;;;;;;;1.73;1.40;;;16.60;51.30;;;;;;4973542;28;20562;-77
2022/10/17 07:27:54;;;;;;;1.60;1.47;;;16.60;51.30;;;;;;4965955;28;20213;-77
2022/10/17 07:30:21;;;;;;;1.77;1.60;;;16.80;50.20;;;;;;4972562;28;20212;-76
2022/10/17 07:32:46;;;;;;;1.30;1.20;;;17.20;50.00;;;;;;4972650;28;20477;-77
2022/10/17 07:35:12;;;;;;;1.30;1.30;;;17.30;49.10;;;;;;4970786;28;20507;-77
2022/10/17 07:37:38;;;;;;;1.50;1.40;;;17.60;48.90;;;;;;4972448;28;20673;-77
2022/10/17 07:40:06;;;;;;;2.57;1.43;;;17.60;49.20;;;;;;4973280;28;20422;-77
2022/10/17 07:42:35;;;;;;;1.83;1.30;;;17.60;48.60;;;;;;4973330;28;20670;-76
2022/10/17 07:45:01;;;;;;;1.60;1.20;;;17.50;48.40;;;;;;4972980;28;20541;-77
2022/10/17 07:47:26;;;;;;;1.83;1.40;;;17.50;50.30;;;;;;4973339;28;20509;-77
2022/10/17 07:49:52;;;;;;;1.30;1.30;;;17.90;49.50;;;;;;4973393;28;20178;-77
2022/10/17 07:52:17;;;;;;;1.70;1.47;;;18.10;48.80;;;;;;4965261;28;20214;-78
2022/10/17 07:54:43;;;;;;;1.40;1.30;;;18.10;48.10;;;;;;4973341;28;20651;-78
2022/10/17 07:57:09;;;;;;;1.67;1.30;;;18.30;48.20;;;;;;4972963;28;20183;-78
2022/10/17 07:59:37;;;;;;;1.90;1.60;;;18.40;47.30;;;;;;4980750;28;20274;-77
2022/10/17 08:02:03;;;;;;;1.87;1.50;;;18.50;48.10;;;;;;4976198;28;20801;-78
2022/10/17 08:04:29;;;;;;;1.40;1.33;;;18.80;46.40;;;;;;4973224;28;20517;-77
2022/10/17 08:06:55;;;;;;;1.30;1.20;;;18.80;47.30;;;;;;4972547;28;20533;-77
2022/10/17 08:09:21;;;;;;;1.50;1.23;;;18.80;46.60;;;;;;4973115;28;20174;-78
2022/10/17 08:11:46;;;;;;;1.50;1.40;;;18.90;48.30;;;;;;4972032;28;20207;-80
2022/10/17 08:14:13;;;;;;;1.33;1.33;;;18.80;45.40;;;;;;4970651;28;20462;-77
2022/10/17 08:16:39;;;;;;;1.50;1.30;;;19.10;46.50;;;;;;4972574;28;20204;-78
2022/10/17 08:19:07;;;;;;;2.13;1.47;;;19.30;44.00;;;;;;4972791;28;20434;-78
2022/10/17 08:21:33;;;;;;;1.80;1.40;;;19.10;45.40;;;;;;4972397;28;20529;-77
2022/10/17 08:24:01;;;;;;;1.70;1.40;;;18.60;46.00;;;;;;4972348;28;21033;-77
2022/10/17 08:26:27;;;;;;;1.30;1.30;;;18.40;48.00;;;;;;4971742;28;20422;-78
2022/10/17 08:28:52;;;;;;;1.33;1.33;;;18.40;46.80;;;;;;4953670;28;20437;-78
2022/10/17 08:31:19;;;;;;;1.30;1.30;;;18.30;47.50;;;;;;4960767;28;20210;-79
2022/10/17 08:33:46;;;;;;;1.47;1.30;;;18.30;48.50;;;;;;4971920;28;20202;-78
2022/10/17 08:36:15;;;;;;;1.30;1.27;;;18.70;47.60;;;;;;4966134;28;20422;-79
2022/10/17 08:38:42;;;;;;;2.00;1.67;;;18.90;46.00;;;;;;4969336;28;20426;-79
2022/10/17 08:41:45;;;;;;;4.23;1.50;;;19.10;45.60;;;;;;4957319;28;20484;-78
2022/10/17 08:44:42;;;;;;;1.50;1.40;;;19.50;44.60;;;;;;4966830;28;20429;-80
2022/10/17 08:47:15;;;;;;;1.97;1.30;;;19.60;44.30;;;;;;4958402;28;20431;-77
2022/10/17 08:49:51;;;;;;;1.40;1.27;;;19.80;42.80;;;;;;4964472;28;20426;-79
2022/10/17 08:52:37;;;;;;;1.30;1.20;;;20.10;42.40;;;;;;4958188;28;20472;-79
2022/10/17 08:55:12;;;;;;;1.50;1.50;;;20.50;42.10;;;;;;4969376;28;20433;-78
2022/10/17 08:57:37;;;;;;;1.33;1.27;;;20.80;41.60;;;;;;4970658;28;20430;-78
2022/10/17 09:00:11;;;;;;;1.57;1.40;;;20.90;41.80;;;;;;4980961;28;20497;-78
2022/10/17 09:02:40;;;;;;;1.70;1.63;;;21.00;41.60;;;;;;4965486;28;20212;-78
2022/10/17 09:05:24;;;;;;;1.30;1.20;;;21.10;41.30;;;;;;4971044;28;20444;-78
2022/10/17 09:08:34;;;;;;;1.50;1.43;;;21.30;41.60;;;;;;4965059;28;20446;-78
2022/10/17 09:11:13;;;;;;;1.80;1.60;;;21.60;39.80;;;;;;4965254;28;22314;-79
2022/10/17 09:13:58;;;;;;;1.67;1.60;;;21.60;40.10;;;;;;4957792;28;20477;-77
2022/10/17 09:16:53;;;;;;;1.60;1.50;;;21.80;40.80;;;;;;4976743;28;20432;-77
2022/10/17 09:19:24;;;;;;;2.17;1.60;;;21.80;38.50;;;;;;4970298;28;20441;-77
2022/10/17 09:22:15;;;;;;;1.50;1.37;;;21.70;38.60;;;;;;4968527;28;20476;-77
2022/10/17 09:24:44;;;;;;;1.77;1.50;;;21.70;38.70;;;;;;4979660;28;20441;-77
2022/10/17 09:27:30;;;;;;;1.40;1.40;;;21.90;39.20;;;;;;4973049;28;21024;-77
2022/10/17 09:30:32;;;;;;;2.23;1.60;;;21.90;39.30;;;;;;4975817;28;20442;-77
2022/10/17 09:32:59;;;;;;;1.90;1.30;;;22.10;38.40;;;;;;4977001;28;20571;-79
2022/10/17 09:35:27;;;;;;;2.47;1.70;;;22.40;38.60;;;;;;4985506;28;20533;-79
2022/10/17 09:37:53;;;;;;;1.40;1.40;;;22.80;37.20;;;;;;4979639;28;20440;-79
2022/10/17 09:40:29;;;;;;;1.70;1.57;;;23.10;36.10;;;;;;4973042;28;20432;-79
2022/10/17 09:42:55;;;;;;;1.50;1.50;;;23.00;36.80;;;;;;4979664;28;20470;-79
2022/10/17 09:45:25;;;;;;;1.70;1.60;;;22.70;36.30;;;;;;4979405;28;20482;-77
2022/10/17 09:47:51;;;;;;;1.87;1.57;;;23.00;36.00;;;;;;4976913;28;20189;-77
2022/10/17 09:50:31;;;;;;;1.77;1.73;;;23.20;36.20;;;;;;4973799;28;20438;-80
2022/10/17 09:53:19;;;;;;;2.80;2.07;;;23.30;37.20;;;;;;4972845;28;20231;-78
2022/10/17 09:55:49;;;;;;;1.63;1.57;;;23.70;35.80;;;;;;4979103;28;20426;-78
2022/10/17 09:58:14;;;;;;;1.50;1.40;;;23.90;35.00;;;;;;4968654;28;20461;-77
2022/10/17 10:00:46;;;;;;;1.77;1.50;;;24.30;34.10;;;;;;4973613;28;20439;-78
2022/10/17 10:03:11;;;;;;;1.30;1.20;;;24.50;34.60;;;;;;4975974;28;20186;-80
2022/10/17 10:05:38;;;;;;;1.77;1.40;;;24.70;34.60;;;;;;4976721;28;20441;-80
2022/10/17 10:08:11;;;;;;;1.60;1.40;;;24.90;34.30;;;;;;4977405;28;20269;-80
2022/10/17 10:10:41;;;;;;;2.27;1.73;;;25.10;33.20;;;;;;4978933;28;20423;-80
2022/10/17 10:13:13;;;;;;;1.60;1.40;;;25.10;33.00;;;;;;4977186;28;20471;-79
2022/10/17 10:15:44;;;;;;;1.40;1.40;;;25.20;33.40;;;;;;4970751;28;20461;-79
2022/10/17 10:18:25;;;;;;;1.97;1.60;;;25.30;32.30;;;;;;4973178;28;20435;-79
2022/10/17 10:21:14;;;;;;;1.70;1.40;;;25.40;31.20;;;;;;4976579;28;20525;-78
2022/10/17 10:23:42;;;;;;;1.70;1.60;;;25.30;32.20;;;;;;4971244;28;20437;-80
2022/10/17 10:26:21;;;;;;;1.50;1.50;;;24.90;32.80;;;;;;4978268;28;20448;-81
2022/10/17 10:29:18;;;;;;;2.27;1.60;;;24.90;33.90;;;;;;4970508;28;21024;-77
2022/10/17 10:31:45;;;;;;;1.47;1.33;;;24.70;32.10;;;;;;4968631;28;20449;-77
2022/10/17 10:34:34;;;;;;;1.60;1.50;;;25.30;32.80;;;;;;4972098;28;20469;-76
2022/10/17 10:37:04;;;;;;;1.80;1.40;;;25.40;31.40;;;;;;4971195;28;20979;-76
2022/10/17 10:39:48;;;;;;;2.03;1.77;;;25.80;30.00;;;;;;4973074;28;20444;-75
2022/10/17 10:42:31;;;;;;;2.43;1.83;;;25.90;30.00;;;;;;4968512;28;20992;-78
2022/10/17 10:45:03;;;;;;;1.83;1.50;;;26.30;29.90;;;;;;4966681;28;20975;-76
2022/10/17 10:47:30;;;;;;;1.53;1.40;;;26.80;28.80;;;;;;4969775;28;20425;-79
2022/10/17 10:50:16;;;;;;;2.00;1.60;;;26.20;30.00;;;;;;4971531;28;20418;-78
2022/10/17 10:52:51;;;;;;;1.60;1.47;;;26.00;30.00;;;;;;4969407;28;20521;-76
2022/10/17 10:55:29;;;;;;;1.40;1.40;;;25.70;31.40;;;;;;4967960;28;20568;-76
2022/10/17 10:58:00;;;;;;;1.50;1.43;;;26.10;31.80;;;;;;4973839;28;20447;-76
2022/10/17 11:00:28;;;;;;;1.40;1.40;;;26.50;30.40;;;;;;4971057;28;20450;-76
2022/10/17 11:03:10;;;;;;;1.67;1.60;;;26.50;30.40;;;;;;4975428;28;20457;-79
2022/10/17 11:05:50;;;;;;;1.67;1.43;;;26.20;30.10;;;;;;4970018;28;20508;-76
2022/10/17 11:08:25;;;;;;;1.60;1.40;;;26.20;30.00;;;;;;4970586;28;20433;-76
2022/10/17 11:11:25;;;;;;;1.80;1.63;;;26.20;30.10;;;;;;4968583;28;20417;-76
2022/10/17 11:14:05;;;;;;;2.60;1.50;;;26.70;29.30;;;;;;4962749;28;20597;-76
2022/10/17 11:16:44;;;;;;;2.20;1.50;;;26.40;29.20;;;;;;4967825;28;20938;-76
2022/10/17 11:19:15;;;;;;;1.87;1.60;;;26.20;29.40;;;;;;4971914;28;20428;-76
2022/10/17 11:22:11;;;;;;;1.60;1.30;;;26.10;30.00;;;;;;4967175;28;20457;-76
2022/10/17 11:24:49;;;;;;;1.40;1.30;;;26.20;29.00;;;;;;4894042;29;20507;-76
2022/10/17 11:27:15;;;;;;;1.40;1.30;;;26.70;29.00;;;;;;4905151;29;20491;-77
2022/10/17 11:29:42;;;;;;;1.30;1.30;;;26.70;28.40;;;;;;4911476;29;20460;-77
2022/10/17 11:32:18;;;;;;;1.50;1.50;;;27.10;28.10;;;;;;4912254;29;20215;-77
2022/10/17 11:34:48;;;;;;;1.50;1.40;;;26.90;28.50;;;;;;4910549;29;20456;-77
2022/10/17 11:37:22;;;;;;;1.40;1.30;;;26.40;29.40;;;;;;4913864;29;20444;-76
2022/10/17 11:40:00;;;;;;;1.67;1.40;;;26.30;31.00;;;;;;4910837;29;20436;-76
2022/10/17 11:42:31;;;;;;;2.37;1.70;;;26.50;30.40;;;;;;4897606;29;20448;-74
2022/10/17 11:45:03;;;;;;;1.57;1.50;;;27.00;30.30;;;;;;4912333;29;20448;-74
2022/10/17 11:47:50;;;;;;;1.70;1.67;;;27.20;29.50;;;;;;4913427;29;20472;-74
2022/10/17 11:50:32;;;;;;;1.40;1.30;;;26.50;29.80;;;;;;4911874;29;20440;-75
2022/10/17 11:53:04;;;;;;;1.40;1.37;;;26.30;30.20;;;;;;4912603;29;20575;-77
2022/10/17 11:55:34;;;;;;;1.83;1.63;;;26.30;30.20;;;;;;4912577;29;20476;-78
2022/10/17 11:58:36;;;;;;;1.57;1.50;;;26.30;30.20;;;;;;4913377;29;21597;-76
2022/10/17 12:01:23;;;;;;;2.00;1.70;;;24.10;28.90;;;;;;4933115;28;20465;-76
2022/10/17 12:03:52;;;;;;;2.17;1.67;;;26.20;31.00;;;;;;4972527;28;20480;-75
2022/10/17 12:06:50;;;;;;;1.30;1.30;;;26.00;31.30;;;;;;4972007;28;20429;-77
2022/10/17 12:09:42;;;;;;;2.17;1.57;;;26.00;30.90;;;;;;4976624;28;20528;-77
2022/10/17 12:12:08;;;;;;;1.43;1.40;;;25.90;32.20;;;;;;4971708;28;20461;-78
2022/10/17 12:14:42;;;;;;;1.90;1.50;;;26.10;29.30;;;;;;4972052;28;20440;-77
2022/10/17 12:17:40;;;;;;;2.17;1.50;;;26.10;29.00;;;;;;4971921;28;20511;-80
2022/10/17 12:20:23;;;;;;;1.80;1.27;;;25.80;28.40;;;;;;4970915;28;21008;-80
2022/10/17 12:22:52;;;;;;;1.80;1.50;;;26.20;28.60;;;;;;4971072;28;21019;-79
2022/10/17 12:25:22;;;;;;;1.50;1.30;;;26.30;27.70;;;;;;4970383;28;20446;-80
2022/10/17 12:27:49;;;;;;;2.23;1.40;;;26.50;27.20;;;;;;4970806;28;20438;-80
2022/10/17 12:30:19;;;;;;;4.23;1.53;;;26.60;26.00;;;;;;4968330;28;20995;-79
2022/10/17 12:33:10;;;;;;;1.60;1.50;;;26.20;26.70;;;;;;4972898;28;20515;-79
2022/10/17 12:35:37;;;;;;;2.03;1.40;;;26.20;27.00;;;;;;5007469;23;20580;-73
2022/10/17 12:38:14;;;;;;;1.60;1.40;;;26.60;26.20;;;;;;4969080;28;20441;-72
2022/10/17 12:40:42;;;;;;;1.70;1.60;;;26.70;25.50;;;;;;4969965;28;20536;-72
2022/10/17 12:43:14;;;;;;;1.80;1.57;;;26.80;25.80;;;;;;4971518;28;20445;-72
2022/10/17 12:45:57;;;;;;;2.03;1.30;;;27.00;25.00;;;;;;4972420;28;20608;-73
2022/10/17 12:48:40;;;;;;;1.50;1.33;;;27.20;24.30;;;;;;4962140;28;20465;-73
2022/10/17 12:51:08;;;;;;;1.40;1.20;;;27.60;22.30;;;;;;4968012;28;20913;-73
2022/10/17 12:53:53;;;;;;;1.30;1.10;;;27.30;23.00;;;;;;4968692;28;20998;-73
2022/10/17 12:56:30;;;;;;;1.30;1.30;;;27.90;22.60;;;;;;4961703;28;20437;-73
2022/10/17 12:58:57;;;;;;;3.17;1.57;;;27.30;23.10;;;;;;4961173;28;20417;-73
2022/10/17 13:01:36;;;;;;;1.40;1.37;;;27.00;23.30;;;;;;4968272;28;20449;-72
2022/10/17 13:04:04;;;;;;;3.53;1.67;;;26.80;23.60;;;;;;4969439;28;20441;-73
2022/10/17 13:06:36;;;;;;;1.30;1.30;;;26.80;23.70;;;;;;4974208;28;20449;-72
2022/10/17 13:09:20;;;;;;;1.30;1.20;;;27.80;21.90;;;;;;4962688;28;20534;-73